Time;durP1;ratioP1;P1;durP2;ratioP2;P2;SDS_P1;SDS_P2;PMS_P1;PMS_P2;Temp;Humidity;BMP_temperature;BMP_pressure;BME280_temperature;BME280_humidity;BME280_pressure;Samples;Min_cycle;Max_cycle;Signal;HPM_P1;HPM_P2
2023/11/24 00:03:58;;;;;;;6.95;1.10;;;10.00;1.00;;;;;;20681237;28;20053;-48
2023/11/24 00:13:59;;;;;;;3.33;0.60;;;10.00;1.00;;;;;;20692405;28;20491;-48
2023/11/24 00:24:04;;;;;;;5.15;0.60;;;9.80;1.00;;;;;;20693221;28;20403;-49
2023/11/24 00:34:07;;;;;;;7.10;0.90;;;9.80;1.00;;;;;;20759232;28;20037;-48
2023/11/24 00:44:08;;;;;;;8.77;1.00;;;9.70;1.00;;;;;;20728937;28;20038;-48
2023/11/24 00:54:09;;;;;;;7.15;0.95;;;9.80;1.00;;;;;;20694415;28;20034;-49
2023/11/24 01:04:10;;;;;;;5.75;0.85;;;9.50;1.00;;;;;;20687876;28;20149;-48
2023/11/24 01:14:10;;;;;;;10.38;1.40;;;9.50;1.00;;;;;;20690108;28;20465;-49
2023/11/24 01:24:11;;;;;;;9.82;1.25;;;9.50;1.00;;;;;;20684316;28;20128;-48
2023/11/24 01:34:14;;;;;;;10.60;0.90;;;9.50;1.00;;;;;;20685703;28;20033;-48
2023/11/24 01:44:15;;;;;;;6.88;0.85;;;9.60;1.00;;;;;;20685229;28;20046;-48
2023/11/24 01:54:18;;;;;;;6.03;1.00;;;9.70;1.00;;;;;;20679870;28;20514;-48
2023/11/24 02:04:19;;;;;;;7.15;0.93;;;9.40;1.00;;;;;;20685423;28;20034;-49
2023/11/24 02:14:20;;;;;;;5.10;0.63;;;9.30;1.00;;;;;;20696606;28;20052;-48
2023/11/24 02:24:20;;;;;;;3.33;0.63;;;9.20;1.00;;;;;;20740263;28;20049;-48
2023/11/24 02:34:21;;;;;;;8.43;1.20;;;8.90;1.00;;;;;;20777915;28;20576;-48
2023/11/24 02:44:22;;;;;;;8.20;0.90;;;8.90;1.00;;;;;;20789622;28;20068;-49
2023/11/24 02:54:22;;;;;;;8.50;0.98;;;8.80;1.00;;;;;;20766091;28;20050;-49
2023/11/24 03:04:23;;;;;;;9.05;0.90;;;8.70;1.00;;;;;;20692510;28;20055;-49
2023/11/24 03:14:24;;;;;;;10.95;1.20;;;8.50;1.00;;;;;;20719702;28;20061;-48
2023/11/24 03:24:26;;;;;;;9.25;1.10;;;8.70;1.00;;;;;;20738168;28;20085;-48
2023/11/24 03:34:26;;;;;;;5.90;1.40;;;8.70;1.00;;;;;;20686596;28;20046;-48
2023/11/24 03:44:27;;;;;;;7.88;0.85;;;8.70;1.00;;;;;;20689567;28;20049;-48
2023/11/24 03:54:27;;;;;;;9.65;1.30;;;8.50;1.00;;;;;;20736753;28;20432;-48
2023/11/24 04:04:28;;;;;;;9.65;1.20;;;8.40;1.00;;;;;;20711388;28;20191;-48
2023/11/24 04:14:28;;;;;;;8.55;1.20;;;8.40;1.00;;;;;;20772310;28;20080;-48
2023/11/24 04:24:29;;;;;;;7.40;1.10;;;8.30;1.00;;;;;;20762856;28;20087;-48
2023/11/24 04:34:29;;;;;;;6.50;1.00;;;8.10;1.00;;;;;;20765834;28;20509;-48
2023/11/24 04:44:31;;;;;;;9.43;1.15;;;8.00;1.00;;;;;;20767527;28;20084;-47
2023/11/24 04:54:31;;;;;;;6.93;1.35;;;7.70;7.30;;;;;;20760533;28;20588;-48
2023/11/24 05:04:34;;;;;;;7.63;2.05;;;7.40;35.20;;;;;;20761180;28;20038;-48
2023/11/24 05:14:35;;;;;;;11.35;1.83;;;7.40;62.30;;;;;;20764294;28;20584;-48
2023/11/24 05:24:39;;;;;;;11.13;1.35;;;7.40;64.20;;;;;;20762134;28;20045;-48
2023/11/24 05:34:40;;;;;;;8.02;1.00;;;7.30;94.70;;;;;;20761958;28;20037;-47
2023/11/24 05:44:41;;;;;;;7.93;1.10;;;7.40;99.70;;;;;;20766003;28;20175;-48
2023/11/24 05:54:42;;;;;;;7.25;1.05;;;7.40;55.70;;;;;;20775526;28;20045;-48
2023/11/24 06:04:42;;;;;;;8.23;1.80;;;7.40;51.00;;;;;;20758231;28;20481;-48
2023/11/24 06:14:43;;;;;;;8.80;1.40;;;7.30;36.10;;;;;;20693986;28;20062;-48
2023/11/24 06:24:43;;;;;;;9.50;1.20;;;7.10;34.00;;;;;;20749988;28;20053;-48
2023/11/24 06:34:44;;;;;;;8.80;1.10;;;7.10;39.80;;;;;;20705110;28;20154;-48
2023/11/24 06:44:44;;;;;;;11.43;1.52;;;7.00;27.20;;;;;;20692962;28;20862;-48
2023/11/24 06:54:45;;;;;;;10.27;1.90;;;6.90;32.10;;;;;;20688548;28;20046;-48
2023/11/24 07:04:47;;;;;;;11.43;1.90;;;6.90;25.00;;;;;;20689346;28;20061;-48
2023/11/24 07:14:47;;;;;;;9.88;1.13;;;6.90;19.90;;;;;;20689912;28;20162;-48
2023/11/24 07:24:48;;;;;;;11.00;2.13;;;7.10;12.10;;;;;;20679474;28;20049;-48
2023/11/24 07:34:49;;;;;;;14.02;2.75;;;7.10;16.30;;;;;;20683616;28;20472;-48
2023/11/24 07:44:50;;;;;;;7.72;0.93;;;7.10;8.00;;;;;;20681860;28;20054;-48
2023/11/24 07:54:50;;;;;;;8.10;1.10;;;7.20;1.00;;;;;;20672135;28;20065;-48
2023/11/24 08:04:51;;;;;;;4.40;0.75;;;7.30;1.00;;;;;;20673033;28;20069;-48
2023/11/24 08:14:51;;;;;;;3.60;1.25;;;7.20;1.00;;;;;;20675673;28;20404;-48
2023/11/24 08:24:54;;;;;;;9.73;1.45;;;7.20;1.00;;;;;;20710906;28;20143;-48
2023/11/24 08:34:55;;;;;;;5.72;0.70;;;7.00;8.30;;;;;;20766562;28;20045;-49
2023/11/24 08:44:57;;;;;;;3.22;1.10;;;6.80;15.30;;;;;;20684852;28;20057;-48
2023/11/24 08:54:58;;;;;;;5.78;0.60;;;6.70;3.30;;;;;;20685335;28;20069;-48
2023/11/24 09:04:58;;;;;;;3.95;0.90;;;6.50;17.20;;;;;;20684787;28;20220;-48
2023/11/24 09:15:04;;;;;;;6.30;1.80;;;6.70;25.70;;;;;;20720082;28;20504;-48
2023/11/24 09:25:08;;;;;;;2.13;0.28;;;6.80;16.40;;;;;;20696546;28;21168;-48
2023/11/24 09:35:09;;;;;;;4.70;0.68;;;6.60;6.20;;;;;;20739698;28;20128;-48
2023/11/24 09:45:15;;;;;;;8.40;0.95;;;6.90;1.00;;;;;;20741799;28;20065;-48
2023/11/24 09:55:19;;;;;;;8.20;1.38;;;6.80;1.00;;;;;;20701637;28;20467;-48
2023/11/24 10:05:20;;;;;;;7.45;1.63;;;7.10;1.00;;;;;;20769586;28;20045;-48
2023/11/24 10:15:22;;;;;;;7.50;0.98;;;7.20;1.00;;;;;;20706502;28;20030;-47
2023/11/24 10:25:23;;;;;;;5.40;0.90;;;7.50;1.00;;;;;;20687296;28;20068;-48
2023/11/24 10:35:24;;;;;;;12.02;1.60;;;7.00;1.00;;;;;;20717496;28;20160;-47
2023/11/24 10:45:30;;;;;;;6.32;0.90;;;6.50;1.00;;;;;;20747402;28;20050;-48
2023/11/24 10:55:33;;;;;;;7.88;1.25;;;6.60;19.50;;;;;;20751732;28;20061;-47
2023/11/24 11:05:52;;;;;;;18.75;1.90;;;6.70;29.40;;;;;;20757708;28;20041;-47
2023/11/24 11:15:54;;;;;;;7.70;2.05;;;7.20;29.70;;;;;;20744604;28;20048;-47
2023/11/24 11:25:54;;;;;;;14.32;1.83;;;7.50;1.00;;;;;;20707821;28;20049;-48
2023/11/24 11:36:02;;;;;;;11.93;2.10;;;7.20;1.00;;;;;;20753535;28;20084;-47
2023/11/24 11:46:03;;;;;;;12.80;1.75;;;7.30;1.00;;;;;;20740416;28;20670;-47
2023/11/24 11:56:06;;;;;;;9.88;1.27;;;7.90;1.00;;;;;;20691488;28;20045;-47
2023/11/24 12:06:07;;;;;;;16.02;1.50;;;8.10;1.00;;;;;;20676353;28;20034;-48
2023/11/24 12:16:08;;;;;;;12.05;1.85;;;8.10;1.00;;;;;;20686425;28;20132;-47
2023/11/24 12:26:08;;;;;;;14.52;2.28;;;8.60;1.00;;;;;;20754901;28;20053;-48
2023/11/24 12:36:09;;;;;;;14.53;2.00;;;9.00;1.00;;;;;;20737976;28;21369;-48
2023/11/24 12:46:20;;;;;;;16.17;2.53;;;9.50;1.00;;;;;;20730043;28;20464;-48
2023/11/24 12:56:20;;;;;;;12.07;1.40;;;9.30;1.00;;;;;;20684191;28;20077;-47
2023/11/24 13:06:23;;;;;;;14.98;1.52;;;9.20;1.00;;;;;;20667774;28;20034;-48
2023/11/24 13:16:23;;;;;;;8.48;1.38;;;8.20;1.00;;;;;;20743241;28;20045;-47
2023/11/24 13:26:25;;;;;;;10.25;1.58;;;7.60;1.00;;;;;;20752465;28;20115;-48
2023/11/24 13:36:26;;;;;;;11.68;1.40;;;7.60;1.00;;;;;;20748332;28;20106;-47
2023/11/24 13:46:27;;;;;;;5.82;0.70;;;7.80;1.00;;;;;;20737744;28;20391;-47
2023/11/24 13:56:28;;;;;;;9.13;1.40;;;7.50;1.00;;;;;;20661243;28;20476;-47
2023/11/24 14:06:30;;;;;;;7.82;1.50;;;7.10;1.00;;;;;;20672244;28;20049;-48
2023/11/24 14:16:31;;;;;;;10.55;1.30;;;6.90;1.00;;;;;;20689272;28;20061;-48
2023/11/24 14:26:35;;;;;;;8.27;1.20;;;7.00;1.00;;;;;;20682622;28;20054;-48
2023/11/24 14:36:38;;;;;;;16.38;1.20;;;6.80;1.00;;;;;;20672199;28;20841;-47
2023/11/24 14:46:38;;;;;;;8.27;1.10;;;6.80;1.00;;;;;;20678669;28;20060;-47
2023/11/24 14:56:40;;;;;;;6.78;0.90;;;7.00;1.00;;;;;;20674592;28;20153;-47
2023/11/24 15:06:41;;;;;;;10.27;1.42;;;6.80;1.00;;;;;;20742019;28;20072;-48
2023/11/24 15:16:57;;;;;;;7.25;0.85;;;6.80;1.00;;;;;;20745910;28;20590;-48
2023/11/24 15:26:59;;;;;;;9.82;0.70;;;6.90;1.00;;;;;;20676402;28;20061;-47
2023/11/24 15:37:01;;;;;;;5.03;1.23;;;6.80;1.00;;;;;;20708223;28;20541;-46
2023/11/24 15:47:05;;;;;;;3.83;0.60;;;6.80;1.00;;;;;;20693903;28;20050;-47
2023/11/24 15:57:06;;;;;;;5.68;0.70;;;6.30;1.00;;;;;;20680882;28;20056;-47
2023/11/24 16:07:08;;;;;;;4.55;0.90;;;6.00;1.00;;;;;;20702195;28;20154;-47
2023/11/24 16:17:08;;;;;;;9.52;1.02;;;5.90;1.00;;;;;;20750984;28;20046;-47
2023/11/24 16:27:09;;;;;;;8.73;1.20;;;6.20;1.00;;;;;;20707661;28;20095;-48
2023/11/24 16:37:10;;;;;;;3.80;0.77;;;6.40;1.00;;;;;;20760580;28;20033;-48
2023/11/24 16:47:13;;;;;;;2.92;0.60;;;6.30;1.00;;;;;;20751223;28;20602;-48
2023/11/24 16:57:14;;;;;;;4.38;0.65;;;6.10;1.00;;;;;;20732498;28;20054;-48
2023/11/24 17:07:15;;;;;;;9.48;1.73;;;6.00;1.00;;;;;;20669842;28;20073;-48
2023/11/24 17:17:15;;;;;;;10.60;2.03;;;6.10;1.00;;;;;;20726774;28;20111;-48
2023/11/24 17:27:16;;;;;;;12.45;1.83;;;6.10;1.00;;;;;;20732280;28;20053;-48
2023/11/24 17:37:16;;;;;;;11.82;1.58;;;6.20;1.00;;;;;;20713414;28;20033;-47
2023/11/24 17:47:17;;;;;;;14.85;2.25;;;6.30;1.00;;;;;;20688871;28;20148;-47
2023/11/24 17:57:19;;;;;;;23.95;2.53;;;6.30;1.00;;;;;;20705885;28;20033;-48
2023/11/24 18:07:20;;;;;;;15.77;2.72;;;6.40;1.00;;;;;;20696250;28;20038;-47
2023/11/24 18:17:20;;;;;;;15.90;2.22;;;6.60;1.00;;;;;;20704464;28;20041;-48
2023/11/24 18:27:23;;;;;;;17.73;2.37;;;6.70;1.00;;;;;;20682136;28;20578;-48
2023/11/24 18:37:25;;;;;;;16.55;1.90;;;6.70;1.00;;;;;;20739737;28;20124;-47
2023/11/24 18:47:26;;;;;;;12.85;1.92;;;6.90;1.00;;;;;;20765395;28;20121;-47
2023/11/24 18:57:26;;;;;;;12.30;2.20;;;7.10;1.00;;;;;;20751334;28;20087;-48
2023/11/24 19:07:27;;;;;;;8.82;1.80;;;7.20;1.00;;;;;;20750344;28;20037;-47
2023/11/24 19:17:27;;;;;;;8.75;1.30;;;7.20;1.00;;;;;;20755882;28;20502;-48
2023/11/24 19:27:28;;;;;;;11.70;1.80;;;7.20;1.00;;;;;;20753231;28;20167;-48
2023/11/24 19:37:29;;;;;;;18.70;2.65;;;7.20;1.00;;;;;;20757620;28;20049;-47
2023/11/24 19:47:29;;;;;;;10.50;1.25;;;7.20;1.00;;;;;;20773545;28;20534;-48
2023/11/24 19:57:31;;;;;;;7.97;1.40;;;6.80;1.00;;;;;;20761667;28;20033;-47
2023/11/24 20:07:32;;;;;;;8.95;1.85;;;6.60;1.00;;;;;;20762938;28;20033;-48
2023/11/24 20:17:33;;;;;;;12.50;2.20;;;6.50;1.00;;;;;;20745054;28;20068;-48
2023/11/24 20:27:35;;;;;;;13.35;2.03;;;6.60;1.00;;;;;;20742800;28;20057;-47
2023/11/24 20:37:36;;;;;;;9.18;1.70;;;6.60;1.00;;;;;;20745563;28;20037;-48
2023/11/24 20:47:37;;;;;;;9.25;1.20;;;6.80;1.00;;;;;;20746960;28;20104;-48
2023/11/24 20:57:37;;;;;;;6.63;1.00;;;6.80;1.00;;;;;;20753227;28;20593;-47
2023/11/24 21:07:38;;;;;;;11.90;1.27;;;6.80;1.00;;;;;;20678013;28;20126;-48
2023/11/24 21:17:38;;;;;;;8.90;1.65;;;6.80;1.00;;;;;;20675949;28;20037;-47
2023/11/24 21:27:39;;;;;;;9.48;1.73;;;6.90;1.00;;;;;;20674500;28;20121;-48
2023/11/24 21:37:39;;;;;;;10.63;2.50;;;6.80;1.00;;;;;;20673487;28;20045;-47
2023/11/24 21:47:40;;;;;;;15.32;2.05;;;6.70;1.00;;;;;;20666456;28;20377;-47
2023/11/24 21:57:41;;;;;;;16.83;3.05;;;6.80;1.00;;;;;;20668854;28;20034;-47
2023/11/24 22:07:42;;;;;;;12.57;2.65;;;6.80;1.00;;;;;;20691653;28;20042;-47
2023/11/24 22:17:42;;;;;;;12.90;1.95;;;6.70;1.00;;;;;;20751808;28;20045;-47
2023/11/24 22:27:43;;;;;;;10.25;1.77;;;6.60;1.00;;;;;;20750830;28;20042;-48
2023/11/24 22:37:43;;;;;;;10.82;1.52;;;6.40;1.00;;;;;;20689516;28;20071;-47
2023/11/24 22:47:44;;;;;;;10.85;1.30;;;6.50;1.00;;;;;;20725061;28;20048;-48
2023/11/24 22:57:45;;;;;;;10.38;1.90;;;6.40;1.00;;;;;;20747366;28;20092;-47
2023/11/24 23:07:45;;;;;;;11.20;1.92;;;6.30;1.00;;;;;;20712247;28;20053;-47
2023/11/24 23:17:46;;;;;;;9.00;1.67;;;6.30;1.00;;;;;;20686701;28;20041;-47
2023/11/24 23:27:47;;;;;;;9.00;2.50;;;6.20;1.00;;;;;;20686456;28;20049;-47
2023/11/24 23:37:48;;;;;;;10.90;1.57;;;6.30;1.00;;;;;;20683133;28;20029;-48
2023/11/24 23:47:49;;;;;;;11.23;1.73;;;6.20;1.00;;;;;;20726417;28;20076;-48
2023/11/24 23:57:50;;;;;;;11.50;1.02;;;6.00;1.00;;;;;;20665207;28;20073;-47
